Time;durP1;ratioP1;P1;durP2;ratioP2;P2;SDS_P1;SDS_P2;PMS_P1;PMS_P2;Temp;Humidity;BMP_temperature;BMP_pressure;BME280_temperature;BME280_humidity;BME280_pressure;Samples;Min_cycle;Max_cycle;Signal;HPM_P1;HPM_P2
2023/03/17 00:00:42;;;;;;;4.82;3.40;;;;;;;4.98;71.15;99937.31;3151664;28;20454;-70
2023/03/17 00:02:14;;;;;;;4.45;3.00;;;;;;;5.07;71.05;99946.63;3159710;28;20074;-70
2023/03/17 00:03:49;;;;;;;5.95;2.95;;;;;;;5.10;70.95;99956.88;3163185;28;20052;-70
2023/03/17 00:05:23;;;;;;;4.80;3.40;;;;;;;5.10;70.81;99948.28;3170723;28;20444;-72
2023/03/17 00:06:56;;;;;;;4.28;3.00;;;;;;;4.24;70.46;99813.28;3166604;28;20083;-70
2023/03/17 00:08:31;;;;;;;4.50;3.40;;;;;;;5.09;70.89;99954.31;3159430;28;20051;-71
2023/03/17 00:10:03;;;;;;;4.90;3.05;;;;;;;4.86;70.92;99924.69;3169833;28;20128;-70
2023/03/17 00:11:35;;;;;;;5.80;3.13;;;;;;;5.07;71.21;99962.09;3170660;28;20055;-71
2023/03/17 00:13:07;;;;;;;5.15;3.40;;;;;;;5.05;71.08;99961.28;3170564;28;20055;-71
2023/03/17 00:14:39;;;;;;;5.28;3.03;;;;;;;5.02;71.34;99958.75;3165780;28;20145;-71
2023/03/17 00:16:16;;;;;;;4.03;3.00;;;;;;;5.01;71.37;99959.66;3170039;28;20083;-71
2023/03/17 00:17:49;;;;;;;4.80;3.13;;;;;;;5.00;71.38;99966.56;3167108;28;20097;-70
2023/03/17 00:19:29;;;;;;;4.88;3.10;;;;;;;4.91;71.46;99945.22;3169698;28;20043;-71
2023/03/17 00:21:01;;;;;;;4.20;3.03;;;;;;;4.97;71.39;99955.44;3170237;28;20443;-70
2023/03/17 00:22:32;;;;;;;5.15;3.58;;;;;;;4.96;71.63;99948.56;3170071;28;20051;-70
2023/03/17 00:24:10;;;;;;;5.45;3.38;;;;;;;4.93;71.61;99957.22;3170261;28;20187;-71
2023/03/17 00:25:44;;;;;;;5.50;3.40;;;;;;;4.96;71.84;99961.47;3169929;28;20039;-70
2023/03/17 00:27:16;;;;;;;4.10;3.22;;;;;;;4.97;71.82;99958.88;3170343;28;20149;-70
2023/03/17 00:28:49;;;;;;;4.75;3.45;;;;;;;4.90;71.75;99949.53;3170317;28;20051;-69
2023/03/17 00:30:23;;;;;;;4.40;3.40;;;;;;;4.96;71.78;99957.16;3169522;28;20048;-70
2023/03/17 00:31:57;;;;;;;;;;;;;;;4.93;71.65;99954.63;3170389;28;20059;-70
2023/03/17 00:33:31;;;;;;;3.95;2.80;;;;;;;4.92;71.93;99963.25;3169802;28;20354;-70
2023/03/17 00:35:04;;;;;;;4.65;3.28;;;;;;;4.94;71.83;99953.75;3162307;28;20840;-70
2023/03/17 00:36:36;;;;;;;3.92;3.03;;;;;;;4.93;72.14;99962.38;3165158;28;20666;-70
2023/03/17 00:38:13;;;;;;;4.32;2.60;;;;;;;4.91;72.06;99958.13;3169896;28;20083;-70
2023/03/17 00:39:48;;;;;;;5.22;3.58;;;;;;;4.76;72.36;99933.47;3169852;28;20059;-69
2023/03/17 00:41:21;;;;;;;5.10;2.72;;;;;;;4.86;72.42;99960.81;3170271;28;20074;-68
2023/03/17 00:42:53;;;;;;;4.55;2.95;;;;;;;4.73;72.50;99943.84;3170306;28;20151;-69
2023/03/17 00:44:25;;;;;;;4.72;3.38;;;;;;;4.81;72.46;99957.44;3167800;28;20583;-69
2023/03/17 00:45:57;;;;;;;4.03;2.47;;;;;;;4.84;72.57;99956.53;3160398;28;20048;-69
2023/03/17 00:47:29;;;;;;;4.65;3.00;;;;;;;4.86;72.46;99960.81;3169656;28;20176;-69
2023/03/17 00:49:01;;;;;;;3.95;2.67;;;;;;;4.86;72.52;99960.81;3170259;28;20048;-68
2023/03/17 00:50:33;;;;;;;4.60;3.10;;;;;;;4.84;72.56;99967.72;3169959;28;20052;-69
2023/03/17 00:52:05;;;;;;;4.03;2.55;;;;;;;4.82;72.68;99961.72;3170042;28;20198;-69
2023/03/17 00:53:36;;;;;;;6.13;3.10;;;;;;;4.66;72.79;99937.09;3169975;28;20189;-69
2023/03/17 00:55:10;;;;;;;4.63;3.20;;;;;;;4.82;72.69;99955.72;3161450;28;20052;-69
2023/03/17 00:56:42;;;;;;;3.88;2.70;;;;;;;4.71;72.76;99938.72;3168657;28;20047;-70
2023/03/17 00:58:19;;;;;;;4.32;2.70;;;;;;;4.83;72.67;99960.00;3169805;28;20047;-68
2023/03/17 00:59:51;;;;;;;4.53;2.60;;;;;;;4.77;72.73;99961.81;3164235;28;20105;-71
2023/03/17 01:01:23;;;;;;;4.38;2.72;;;;;;;4.82;72.79;99958.28;3167246;28;20054;-69
2023/03/17 01:02:56;;;;;;;3.75;2.50;;;;;;;4.82;72.83;99966.03;3169751;28;20159;-69
2023/03/17 01:04:28;;;;;;;3.20;2.53;;;;;;;4.84;72.80;99964.28;3169876;28;20055;-70
2023/03/17 01:06:03;;;;;;;3.83;2.60;;;;;;;4.83;72.80;99965.19;3169930;28;20052;-69
2023/03/17 01:07:36;;;;;;;4.32;2.90;;;;;;;4.83;72.72;99973.75;3169492;28;20052;-68
2023/03/17 01:09:08;;;;;;;5.10;2.77;;;;;;;4.83;72.85;99972.91;3169504;28;20056;-69
2023/03/17 01:10:44;;;;;;;4.05;2.53;;;;;;;4.72;72.89;99957.63;3163976;28;20352;-70
2023/03/17 01:12:15;;;;;;;4.28;2.85;;;;;;;4.76;72.88;99972.16;3163759;28;20151;-70
2023/03/17 01:13:47;;;;;;;5.82;2.78;;;;;;;4.74;72.75;99969.63;3169812;27;20052;-70
2023/03/17 01:15:20;;;;;;;4.25;2.83;;;;;;;4.83;72.79;99976.34;3165491;28;20052;-70
2023/03/17 01:16:53;;;;;;;4.85;2.80;;;;;;;4.85;72.63;99978.88;3169147;28;20058;-69
2023/03/17 01:18:25;;;;;;;;;;;;;;;4.83;72.56;99989.25;3169911;28;20047;-69
2023/03/17 01:19:58;;;;;;;2.58;2.03;;;;;;;4.83;72.63;99978.06;3169784;28;20404;-70
2023/03/17 01:21:29;;;;;;;5.63;2.15;;;;;;;4.86;72.39;99985.75;3169637;28;20043;-70
2023/03/17 01:23:02;;;;;;;3.55;2.75;;;;;;;3.83;72.24;99818.28;3169508;28;20055;-71
2023/03/17 01:24:33;;;;;;;3.28;2.42;;;;;;;4.82;72.36;99972.03;3169401;28;20601;-70
2023/03/17 01:26:06;;;;;;;3.78;2.33;;;;;;;4.87;72.39;99984.88;3169379;28;20055;-70
2023/03/17 01:27:39;;;;;;;3.47;2.35;;;;;;;4.89;72.44;99988.28;3169526;28;20054;-71
2023/03/17 01:29:10;;;;;;;4.13;2.65;;;;;;;4.85;72.50;99990.06;3169575;28;20056;-71
2023/03/17 01:30:42;;;;;;;4.00;2.70;;;;;;;4.86;72.38;99988.34;3168786;28;20116;-70
2023/03/17 01:32:15;;;;;;;3.78;2.70;;;;;;;4.76;72.30;99974.75;3169546;28;20159;-71
2023/03/17 01:33:47;;;;;;;3.38;2.22;;;;;;;4.79;72.37;99977.25;3169672;28;20082;-71
2023/03/17 01:35:18;;;;;;;3.75;2.60;;;;;;;4.87;72.36;99992.59;3159301;28;20090;-71
2023/03/17 01:36:50;;;;;;;3.13;2.25;;;;;;;4.70;72.45;99965.41;3166393;28;20047;-70
2023/03/17 01:38:21;;;;;;;3.85;2.50;;;;;;;4.78;72.44;99978.16;3169190;28;20514;-70
2023/03/17 01:39:53;;;;;;;3.70;2.25;;;;;;;4.87;72.25;99998.63;3168895;28;20056;-71
2023/03/17 01:41:25;;;;;;;5.15;2.63;;;;;;;4.65;72.25;99946.59;3169693;28;20054;-70
2023/03/17 01:43:03;;;;;;;3.97;2.50;;;;;;;4.92;72.12;99990.81;3169591;28;20048;-70
2023/03/17 01:44:35;;;;;;;3.95;2.42;;;;;;;4.93;72.10;99992.50;3165974;28;20110;-71
2023/03/17 01:46:28;;;;;;;3.17;2.20;;;;;;;4.92;72.04;99990.81;3160586;28;20720;-71
2023/03/17 01:47:58;;;;;;;4.03;2.08;;;;;;;4.91;72.03;100000.28;3169315;28;20047;-71
2023/03/17 01:49:36;;;;;;;2.58;1.95;;;;;;;4.79;71.90;99972.09;3169558;28;20051;-70
2023/03/17 01:51:10;;;;;;;3.90;2.20;;;;;;;4.83;71.88;99980.66;3169508;28;20054;-71
2023/03/17 01:52:42;;;;;;;2.90;2.25;;;;;;;4.94;71.92;100001.91;3169130;28;20039;-72
2023/03/17 01:54:18;;;;;;;3.13;2.20;;;;;;;4.72;71.79;99965.38;3168074;28;20089;-71
2023/03/17 01:55:52;;;;;;;2.38;1.90;;;;;;;4.85;71.75;99979.75;3160672;28;20051;-71
2023/03/17 01:57:31;;;;;;;2.22;1.80;;;;;;;4.84;71.54;99987.50;3169479;28;20488;-72
2023/03/17 01:59:06;;;;;;;4.25;2.28;;;;;;;4.95;71.62;99998.47;3168988;28;20048;-72
2023/03/17 02:00:39;;;;;;;2.88;1.90;;;;;;;4.96;71.51;100005.34;3159879;28;20054;-71
2023/03/17 02:02:16;;;;;;;3.42;2.08;;;;;;;4.94;71.44;100004.50;3167563;28;20044;-71
2023/03/17 02:03:49;;;;;;;4.13;2.30;;;;;;;4.95;71.33;100007.06;3169174;28;20531;-71
2023/03/17 02:05:24;;;;;;;3.50;2.35;;;;;;;4.89;71.42;99991.72;3169180;28;20047;-72
2023/03/17 02:06:57;;;;;;;3.90;2.10;;;;;;;4.96;71.30;100007.91;3165003;28;20188;-71
2023/03/17 02:08:29;;;;;;;2.78;1.83;;;;;;;4.72;71.13;99963.63;3168933;28;20043;-73
2023/03/17 02:10:02;;;;;;;3.03;2.30;;;;;;;4.77;71.09;99969.56;3169277;28;20047;-71
2023/03/17 02:11:33;;;;;;;;;;;;;;;4.97;71.00;100007.06;3169624;28;20138;-71
2023/03/17 02:13:09;;;;;;;2.70;1.77;;;;;;;4.90;71.11;100001.13;3169335;28;20276;-71
2023/03/17 02:14:41;;;;;;;3.15;1.92;;;;;;;4.88;70.83;99990.00;3164437;28;20044;-71
2023/03/17 02:16:16;;;;;;;2.13;1.67;;;;;;;4.96;70.71;100001.03;3168537;28;20799;-72
2023/03/17 02:17:48;;;;;;;3.83;2.50;;;;;;;5.00;70.60;100004.41;3168858;28;20064;-71
2023/03/17 02:19:20;;;;;;;3.15;2.00;;;;;;;5.09;70.48;100019.72;3169182;28;20052;-71
2023/03/17 02:21:33;;;;;;;4.47;1.88;;;;;;;5.11;70.32;100019.69;3169371;28;20488;-71
2023/03/17 02:23:09;;;;;;;3.20;1.70;;;;;;;5.00;70.33;100005.25;3169634;28;20051;-71
2023/03/17 02:24:44;;;;;;;2.50;1.60;;;;;;;5.01;70.26;100006.09;3146594;28;20048;-72
2023/03/17 02:26:18;;;;;;;2.42;1.73;;;;;;;4.88;70.17;99983.97;3145887;28;20543;-71
2023/03/17 02:27:54;;;;;;;3.00;1.63;;;;;;;5.01;70.17;100006.94;3145632;28;20581;-71
2023/03/17 02:29:26;;;;;;;3.28;1.60;;;;;;;5.00;70.09;100001.84;3144720;28;20509;-71
2023/03/17 02:30:58;;;;;;;2.75;1.48;;;;;;;5.04;70.10;100016.38;3146560;28;20053;-70
2023/03/17 02:32:30;;;;;;;2.53;1.63;;;;;;;5.06;70.01;100008.59;3146130;28;20049;-70
2023/03/17 02:34:01;;;;;;;2.92;1.70;;;;;;;5.15;69.92;100021.34;3146234;28;20049;-70
2023/03/17 02:35:33;;;;;;;2.67;1.70;;;;;;;5.09;69.69;100014.56;3146428;28;20135;-71
2023/03/17 02:37:06;;;;;;;2.67;1.63;;;;;;;5.18;69.74;100026.44;3146775;28;20529;-71
2023/03/17 02:38:38;;;;;;;2.22;1.45;;;;;;;5.17;69.76;100028.16;3145764;28;20121;-70
2023/03/17 02:40:12;;;;;;;3.20;1.90;;;;;;;5.08;69.54;100012.00;3137843;28;20052;-71
2023/03/17 02:41:43;;;;;;;;;;;;;;;5.17;69.34;100038.47;3134764;28;20049;-71
2023/03/17 02:43:14;;;;;;;2.08;1.20;;;;;;;5.12;69.40;100019.66;3141666;28;19924;-71
2023/03/17 02:44:47;;;;;;;2.70;1.60;;;;;;;5.23;69.25;100035.81;3140659;28;20076;-71
2023/03/17 02:46:18;;;;;;;1.60;1.10;;;;;;;5.17;69.11;100028.16;3139232;28;20576;-71
2023/03/17 02:47:51;;;;;;;3.17;1.65;;;;;;;5.26;69.01;100040.03;3146220;28;20339;-71
2023/03/17 02:49:23;;;;;;;3.88;1.58;;;;;;;5.27;68.91;100043.50;3146341;28;20047;-72
2023/03/17 02:50:54;;;;;;;4.63;2.05;;;;;;;5.28;68.81;100040.84;3146443;28;20114;-71
2023/03/17 02:52:26;;;;;;;4.43;1.83;;;;;;;5.22;68.73;100023.75;3145913;28;20048;-73
2023/03/17 02:53:59;;;;;;;4.50;2.22;;;;;;;5.24;68.62;100031.47;3146390;28;20102;-70
2023/03/17 02:55:31;;;;;;;4.25;2.25;;;;;;;5.32;68.51;100034.75;3145966;28;20044;-70
2023/03/17 02:57:03;;;;;;;3.38;1.90;;;;;;;5.35;68.59;100042.44;3145959;28;20112;-70
2023/03/17 02:58:33;;;;;;;2.60;1.75;;;;;;;5.38;68.38;100046.69;3145674;28;20510;-72
2023/03/17 03:00:09;;;;;;;4.05;1.52;;;;;;;5.35;68.29;100039.00;3138416;28;20052;-70
2023/03/17 03:01:41;;;;;;;3.05;1.83;;;;;;;5.30;68.27;100028.78;3144548;28;20080;-70
2023/03/17 03:03:13;;;;;;;3.10;1.40;;;;;;;5.41;68.32;100047.50;3144788;28;20044;-71
2023/03/17 03:04:45;;;;;;;2.50;1.50;;;;;;;4.95;67.70;99970.09;3145724;28;20438;-70
2023/03/17 03:06:17;;;;;;;2.53;1.30;;;;;;;5.30;67.91;100023.63;3146348;28;20549;-70
2023/03/17 03:07:50;;;;;;;2.45;1.40;;;;;;;5.48;67.86;100049.06;3145633;28;20449;-70
2023/03/17 03:09:24;;;;;;;2.35;1.42;;;;;;;5.43;67.72;100050.03;3145318;28;20044;-70
2023/03/17 03:10:55;;;;;;;2.33;1.33;;;;;;;5.42;67.61;100043.19;3145973;28;20053;-70
2023/03/17 03:12:27;;;;;;;2.67;1.45;;;;;;;5.42;67.56;100048.34;3145995;28;20044;-70
2023/03/17 03:13:58;;;;;;;1.83;1.30;;;;;;;5.47;67.50;100057.69;3145442;28;20126;-71
2023/03/17 03:15:30;;;;;;;1.98;1.40;;;;;;;5.47;67.47;100059.41;3140547;28;20594;-71
2023/03/17 03:17:03;;;;;;;2.03;1.33;;;;;;;5.48;67.34;100064.56;3146199;28;20044;-70
2023/03/17 03:18:35;;;;;;;1.75;1.40;;;;;;;5.51;67.28;100057.66;3145855;28;20040;-71
2023/03/17 03:20:10;;;;;;;2.58;1.40;;;;;;;5.45;67.15;100053.44;3145734;28;20457;-71
2023/03/17 03:21:42;;;;;;;1.60;1.30;;;;;;;5.54;67.15;100068.75;3145675;28;20045;-71
2023/03/17 03:23:15;;;;;;;1.23;0.88;;;;;;;5.55;66.93;100064.44;3146831;28;20595;-71
2023/03/17 03:24:47;;;;;;;1.55;1.40;;;;;;;5.47;66.89;100054.25;3170779;28;20120;-72
2023/03/17 03:26:20;;;;;;;1.92;1.20;;;;;;;5.55;66.86;100067.03;3170566;28;20104;-71
2023/03/17 03:27:51;;;;;;;2.20;1.45;;;;;;;5.54;66.65;100073.91;3170619;28;20055;-71
2023/03/17 03:29:23;;;;;;;2.17;1.33;;;;;;;5.06;66.60;99985.34;3169338;28;20070;-71
2023/03/17 03:30:55;;;;;;;1.60;1.10;;;;;;;5.53;66.67;100067.06;3160841;28;20101;-72
2023/03/17 03:32:26;;;;;;;1.67;1.10;;;;;;;5.46;66.59;100052.56;3170791;28;20040;-71
2023/03/17 03:33:58;;;;;;;2.20;1.40;;;;;;;5.52;66.56;100070.50;3170702;28;20044;-71
2023/03/17 03:35:30;;;;;;;1.88;1.20;;;;;;;5.51;66.38;100061.06;3171179;28;20044;-71
2023/03/17 03:37:02;;;;;;;2.17;1.30;;;;;;;5.57;66.34;100066.09;3170287;28;20066;-71
2023/03/17 03:38:34;;;;;;;2.28;1.20;;;;;;;5.59;66.26;100060.91;3170735;28;20051;-71
2023/03/17 03:40:08;;;;;;;2.17;1.20;;;;;;;5.50;66.23;100053.34;3170435;28;20059;-71
2023/03/17 03:41:40;;;;;;;2.30;1.50;;;;;;;5.54;66.05;100058.44;3170937;27;20504;-71
2023/03/17 03:43:12;;;;;;;2.03;1.15;;;;;;;5.58;66.15;100062.63;3170481;28;20180;-71
2023/03/17 03:44:43;;;;;;;1.98;1.20;;;;;;;5.65;65.85;100073.72;3165551;28;20055;-70
2023/03/17 03:46:15;;;;;;;2.03;1.48;;;;;;;5.66;65.76;100076.25;3163647;28;20115;-70
2023/03/17 03:47:46;;;;;;;1.23;1.10;;;;;;;5.59;65.71;100061.78;3170486;28;20126;-71
2023/03/17 03:49:18;;;;;;;2.13;1.17;;;;;;;5.67;65.65;100077.09;3170403;28;20043;-71
2023/03/17 03:50:50;;;;;;;3.80;1.20;;;;;;;5.67;65.66;100071.94;3170581;28;20150;-71
2023/03/17 03:52:22;;;;;;;2.65;1.23;;;;;;;5.63;65.61;100065.97;3170342;27;20055;-70
2023/03/17 03:53:54;;;;;;;2.83;1.00;;;;;;;5.59;65.61;100061.78;3170237;27;20097;-70
2023/03/17 03:55:27;;;;;;;2.42;1.48;;;;;;;5.58;65.44;100060.06;3160545;27;20448;-71
2023/03/17 03:56:58;;;;;;;2.65;1.10;;;;;;;5.69;65.45;100068.44;3163632;28;20574;-71
2023/03/17 03:58:30;;;;;;;3.85;1.63;;;;;;;5.63;65.22;100067.72;3171075;28;20110;-70
2023/03/17 04:00:01;;;;;;;2.20;1.35;;;;;;;5.70;65.28;100075.28;3162609;28;20378;-70
2023/03/17 04:01:33;;;;;;;2.15;1.20;;;;;;;5.70;65.20;100080.47;3168939;28;20051;-70
2023/03/17 04:03:05;;;;;;;2.35;1.27;;;;;;;5.63;65.06;100075.47;3170470;28;20051;-70
2023/03/17 04:04:35;;;;;;;2.70;1.45;;;;;;;5.58;65.05;100064.38;3170579;28;20101;-72
2023/03/17 04:06:07;;;;;;;2.15;1.40;;;;;;;5.48;65.05;100054.22;3170360;28;20585;-70
2023/03/17 04:07:40;;;;;;;2.78;1.35;;;;;;;4.93;65.15;99967.53;3170417;28;20044;-69
2023/03/17 04:09:12;;;;;;;2.78;1.70;;;;;;;5.63;64.97;100072.88;3170741;28;20047;-70
2023/03/17 04:10:45;;;;;;;2.47;1.35;;;;;;;5.63;64.96;100072.88;3170394;28;20131;-71
2023/03/17 04:12:17;;;;;;;2.47;1.30;;;;;;;5.62;64.87;100079.78;3170326;28;20522;-70
2023/03/17 04:13:49;;;;;;;2.55;1.70;;;;;;;5.70;64.91;100090.78;3169787;28;20052;-71
2023/03/17 04:15:21;;;;;;;1.80;1.35;;;;;;;5.43;64.85;100042.28;3165722;28;20047;-70
2023/03/17 04:16:53;;;;;;;2.25;1.38;;;;;;;5.73;64.79;100099.38;3170109;28;20499;-70
2023/03/17 04:18:25;;;;;;;2.08;1.17;;;;;;;5.75;64.64;100101.06;3170408;28;20050;-70
2023/03/17 04:19:58;;;;;;;3.40;1.40;;;;;;;5.67;64.65;100084.84;3169821;28;20055;-71
2023/03/17 04:21:28;;;;;;;2.20;1.40;;;;;;;5.56;64.49;100069.59;3170344;28;20075;-70
2023/03/17 04:23:00;;;;;;;2.78;1.77;;;;;;;5.78;64.46;100102.72;3169972;28;20051;-70
2023/03/17 04:24:33;;;;;;;2.08;1.60;;;;;;;5.79;64.51;100104.41;3169948;28;20442;-70
2023/03/17 04:26:07;;;;;;;1.85;1.30;;;;;;;5.70;64.35;100097.69;3169431;28;20047;-70
2023/03/17 04:27:39;;;;;;;2.53;1.83;;;;;;;5.77;64.36;100113.94;3164342;28;20130;-71
2023/03/17 04:29:14;;;;;;;2.95;1.90;;;;;;;5.77;64.32;100109.63;3169392;27;20073;-70
2023/03/17 04:30:47;;;;;;;2.63;1.75;;;;;;;5.78;64.31;100107.91;3169923;28;20439;-70
2023/03/17 04:32:19;;;;;;;2.77;1.70;;;;;;;5.77;64.19;100119.09;3170327;28;20059;-70
2023/03/17 04:33:51;;;;;;;4.35;2.38;;;;;;;5.75;64.15;100119.13;3170264;28;20124;-71
2023/03/17 04:35:23;;;;;;;3.03;1.85;;;;;;;5.53;64.23;100089.44;3170242;28;20619;-70
2023/03/17 04:36:55;;;;;;;3.58;2.20;;;;;;;5.76;64.15;100120.84;3169637;28;20123;-71
2023/03/17 04:38:26;;;;;;;3.65;1.90;;;;;;;5.77;64.14;100119.09;3170138;28;20043;-71
2023/03/17 04:39:58;;;;;;;3.08;2.08;;;;;;;5.77;64.13;100130.31;3169842;28;20063;-71
2023/03/17 04:41:30;;;;;;;6.13;2.08;;;;;;;5.70;64.00;100121.81;3170123;28;20069;-72
2023/03/17 04:43:02;;;;;;;2.58;1.70;;;;;;;5.70;64.07;100120.97;3169673;28;20078;-72
2023/03/17 04:44:33;;;;;;;2.63;1.70;;;;;;;5.69;64.05;100120.13;3166855;28;20418;-72
2023/03/17 04:46:05;;;;;;;3.03;1.95;;;;;;;5.77;63.94;100135.47;3160621;28;20050;-71
2023/03/17 04:47:38;;;;;;;3.03;1.73;;;;;;;5.70;64.01;100128.72;3169800;28;20492;-72
2023/03/17 04:49:10;;;;;;;3.30;2.07;;;;;;;5.69;63.94;100127.03;3169537;28;20431;-72
2023/03/17 04:50:43;;;;;;;2.17;1.38;;;;;;;5.78;63.99;100141.50;3158803;28;20367;-71
2023/03/17 04:52:14;;;;;;;3.50;1.80;;;;;;;5.70;63.88;100129.56;3170068;28;20047;-70
2023/03/17 04:53:46;;;;;;;2.58;1.65;;;;;;;5.49;63.85;100093.81;3169520;28;20051;-70
2023/03/17 04:55:19;;;;;;;3.70;2.05;;;;;;;5.50;63.72;100103.25;3163445;28;20047;-71
2023/03/17 04:56:52;;;;;;;3.22;1.90;;;;;;;5.75;63.69;100133.81;3169252;28;20059;-71
2023/03/17 04:58:24;;;;;;;3.03;1.60;;;;;;;5.82;63.63;100150.88;3169683;28;20524;-71
2023/03/17 04:59:57;;;;;;;3.45;2.00;;;;;;;5.76;63.52;100135.50;3163126;27;20556;-70
2023/03/17 05:01:28;;;;;;;3.47;1.60;;;;;;;5.85;63.59;100153.41;3167587;28;20051;-71
2023/03/17 05:03:00;;;;;;;4.18;1.80;;;;;;;5.79;63.46;100136.28;3169690;28;20097;-70
2023/03/17 05:04:31;;;;;;;3.15;1.85;;;;;;;5.78;63.56;100138.91;3169993;28;20440;-71
2023/03/17 05:06:03;;;;;;;8.75;2.05;;;;;;;5.62;63.27;100112.50;3169387;28;20055;-71
2023/03/17 05:07:36;;;;;;;6.53;2.72;;;;;;;5.87;63.30;100156.81;3169796;28;20414;-71
2023/03/17 05:09:07;;;;;;;3.13;1.85;;;;;;;5.67;63.34;100126.19;3169982;28;20142;-70
2023/03/17 05:10:38;;;;;;;5.40;3.20;;;;;;;5.80;63.25;100145.75;3169509;28;20044;-71
2023/03/17 05:12:13;;;;;;;4.47;2.72;;;;;;;5.53;63.31;100102.34;3169374;28;20517;-71
2023/03/17 05:13:45;;;;;;;4.63;2.70;;;;;;;5.89;63.29;100162.81;3169631;28;20054;-71
2023/03/17 05:15:18;;;;;;;4.43;2.20;;;;;;;5.92;63.19;100167.91;3164529;28;20047;-71
2023/03/17 05:16:50;;;;;;;3.67;2.00;;;;;;;5.94;63.07;100168.75;3169203;28;20044;-70
2023/03/17 05:18:23;;;;;;;6.10;2.42;;;;;;;5.97;63.12;100170.41;3169744;28;20048;-70
2023/03/17 05:19:55;;;;;;;3.85;2.20;;;;;;;5.90;62.94;100162.75;3169689;28;20104;-70
2023/03/17 05:21:27;;;;;;;3.63;2.10;;;;;;;6.02;62.96;100176.34;3169411;28;20198;-70
2023/03/17 05:22:59;;;;;;;3.28;2.13;;;;;;;6.00;62.89;100176.38;3169538;28;20055;-70
2023/03/17 05:24:30;;;;;;;4.40;2.50;;;;;;;5.92;62.80;100157.56;3168851;28;20055;-70
2023/03/17 05:26:02;;;;;;;4.50;2.30;;;;;;;5.97;62.67;100175.59;3169411;28;20079;-70
2023/03/17 05:27:36;;;;;;;5.55;3.00;;;;;;;5.97;62.65;100171.28;3169765;28;20052;-70
2023/03/17 05:29:08;;;;;;;;;;;;;;;6.03;62.71;100185.81;3169427;28;20047;-70
2023/03/17 05:30:39;;;;;;;6.25;2.47;;;;;;;6.04;62.63;100188.38;3167862;28;19927;-70
2023/03/17 05:32:12;;;;;;;4.45;2.70;;;;;;;6.00;62.47;100173.78;3168530;28;20051;-70
2023/03/17 05:33:45;;;;;;;11.48;4.18;;;;;;;5.89;62.35;100152.47;3167251;27;20443;-70
2023/03/17 05:35:17;;;;;;;8.18;3.90;;;;;;;6.10;62.39;100183.06;3167766;28;20047;-70
2023/03/17 05:36:49;;;;;;;3.73;2.80;;;;;;;6.12;62.24;100191.66;3167809;28;20040;-71
2023/03/17 05:38:21;;;;;;;5.32;3.08;;;;;;;6.12;62.21;100186.50;3167705;28;20314;-69
2023/03/17 05:39:53;;;;;;;9.50;3.03;;;;;;;6.19;62.19;100191.53;3167303;28;20056;-70
2023/03/17 05:41:25;;;;;;;4.68;2.53;;;;;;;6.10;61.88;100175.31;3168102;28;20581;-70
2023/03/17 05:42:57;;;;;;;7.70;2.92;;;;;;;6.25;61.80;100194.00;3167636;28;20056;-70
2023/03/17 05:44:29;;;;;;;6.03;2.15;;;;;;;6.26;61.86;100193.09;3166362;28;20047;-71
2023/03/17 05:46:02;;;;;;;2.90;2.15;;;;;;;6.27;61.76;100194.78;3168070;28;20055;-71
2023/03/17 05:47:35;;;;;;;5.07;2.65;;;;;;;6.20;61.62;100185.47;3168327;28;20149;-71
2023/03/17 05:49:06;;;;;;;4.03;2.13;;;;;;;6.26;61.64;100198.25;3166139;28;20043;-71
2023/03/17 05:50:38;;;;;;;4.53;2.20;;;;;;;6.25;61.59;100202.59;3168158;28;20075;-70
2023/03/17 05:52:10;;;;;;;4.07;2.30;;;;;;;6.28;61.77;100196.50;3165704;28;20052;-71
2023/03/17 05:53:42;;;;;;;7.43;2.70;;;;;;;6.23;61.58;100182.81;3168869;28;20070;-71
2023/03/17 05:55:14;;;;;;;7.15;2.95;;;;;;;6.35;61.49;100200.66;3169014;28;20051;-67
2023/03/17 05:56:47;;;;;;;5.03;2.75;;;;;;;6.33;61.48;100197.25;3168471;28;20561;-69
2023/03/17 05:58:20;;;;;;;4.65;3.05;;;;;;;6.43;61.30;100205.69;3168121;28;20448;-70
2023/03/17 05:59:51;;;;;;;10.02;2.80;;;;;;;6.46;61.25;100209.03;3163232;28;20067;-70
2023/03/17 06:01:23;;;;;;;4.30;2.58;;;;;;;6.49;61.19;100208.97;3166461;28;20051;-69
2023/03/17 06:02:54;;;;;;;5.55;2.95;;;;;;;6.52;61.09;100211.50;3168799;28;20580;-69
2023/03/17 06:04:26;;;;;;;5.47;2.50;;;;;;;6.46;61.02;100198.69;3169059;28;20051;-70
2023/03/17 06:05:58;;;;;;;3.55;2.15;;;;;;;6.63;61.04;100213.00;3168418;28;20451;-70
2023/03/17 06:07:29;;;;;;;4.88;2.45;;;;;;;6.48;60.75;100188.31;3168048;28;20104;-69
2023/03/17 06:09:01;;;;;;;4.28;2.30;;;;;;;6.71;60.58;100211.06;3168742;28;20523;-69
2023/03/17 06:10:33;;;;;;;8.25;2.63;;;;;;;6.84;60.47;100221.13;3169273;28;20051;-70
2023/03/17 06:12:06;;;;;;;3.95;2.17;;;;;;;6.90;60.40;100219.28;3169066;28;20052;-70
2023/03/17 06:13:39;;;;;;;6.38;2.72;;;;;;;7.09;60.12;100236.06;3168981;28;20488;-70
2023/03/17 06:15:11;;;;;;;6.53;2.70;;;;;;;7.22;60.00;100224.53;3160747;28;20064;-70
2023/03/17 06:16:43;;;;;;;7.22;2.80;;;;;;;7.36;59.73;100234.53;3167019;28;20055;-70
2023/03/17 06:18:15;;;;;;;6.20;2.78;;;;;;;7.47;59.37;100229.94;3169426;28;20109;-66
2023/03/17 06:19:47;;;;;;;4.70;2.42;;;;;;;7.61;59.07;100236.53;3168848;28;20055;-68
2023/03/17 06:21:19;;;;;;;5.75;2.75;;;;;;;7.73;58.79;100225.84;3168820;28;20113;-66
2023/03/17 06:22:51;;;;;;;3.78;2.13;;;;;;;7.79;58.29;100225.66;3168856;28;20055;-69
2023/03/17 06:24:23;;;;;;;4.25;2.33;;;;;;;7.90;57.90;100228.81;3168940;28;20059;-70
2023/03/17 06:25:54;;;;;;;4.75;2.20;;;;;;;8.11;57.36;100239.50;3168540;28;20047;-71
2023/03/17 06:27:27;;;;;;;4.20;2.30;;;;;;;8.19;56.85;100245.31;3169159;28;20100;-73
2023/03/17 06:29:00;;;;;;;3.17;2.28;;;;;;;8.32;56.59;100238.88;3168268;28;20047;-71
2023/03/17 06:30:32;;;;;;;3.88;2.28;;;;;;;8.45;56.15;100247.19;3167715;28;20035;-72
2023/03/17 06:32:05;;;;;;;3.45;2.28;;;;;;;8.16;55.72;100178.81;3168950;28;20047;-72
2023/03/17 06:33:37;;;;;;;3.00;2.20;;;;;;;8.56;55.20;100234.75;3168764;28;20040;-69
2023/03/17 06:35:09;;;;;;;4.65;2.42;;;;;;;8.65;55.14;100238.81;3168715;28;20056;-69
2023/03/17 06:36:42;;;;;;;5.47;2.83;;;;;;;8.88;55.06;100236.38;3169063;28;20089;-73
2023/03/17 06:38:14;;;;;;;3.40;2.50;;;;;;;8.79;54.71;100213.28;3162017;28;20070;-67
2023/03/17 06:39:46;;;;;;;5.03;2.58;;;;;;;9.07;54.16;100246.16;3168502;28;20052;-73
2023/03/17 06:41:18;;;;;;;5.78;2.80;;;;;;;9.08;53.72;100234.88;3168921;28;20531;-70
2023/03/17 06:42:49;;;;;;;6.60;2.72;;;;;;;9.09;53.73;100231.41;3168813;28;20051;-75
2023/03/17 06:44:23;;;;;;;4.03;2.00;;;;;;;9.31;53.07;100253.16;3167606;28;20063;-70
2023/03/17 06:45:55;;;;;;;8.55;2.80;;;;;;;9.49;52.94;100250.88;3158633;28;20048;-74
2023/03/17 06:47:27;;;;;;;18.63;8.75;;;;;;;9.14;52.69;100171.47;3169628;28;20055;-68
2023/03/17 06:48:58;;;;;;;23.27;10.68;;;;;;;9.52;52.34;100238.63;3168617;28;20508;-73
2023/03/17 06:50:30;;;;;;;12.77;6.90;;;;;;;9.50;52.30;100235.22;3168548;28;20104;-75
2023/03/17 06:52:02;;;;;;;26.73;11.20;;;;;;;9.39;52.25;100215.69;3156559;28;20160;-71
2023/03/17 06:53:34;;;;;;;6.93;3.58;;;;;;;8.85;51.95;100142.97;3168439;28;20376;-74
2023/03/17 06:55:07;;;;;;;9.57;3.05;;;;;;;9.48;52.04;100256.97;3168708;28;20127;-76
2023/03/17 06:56:39;;;;;;;5.65;2.53;;;;;;;8.66;51.99;100100.31;3168097;28;20048;-74
2023/03/17 06:58:12;;;;;;;8.95;5.72;;;;;;;9.74;51.80;100250.91;3168210;28;20051;-72
2023/03/17 06:59:45;;;;;;;10.30;4.75;;;;;;;9.74;51.63;100243.94;3163768;28;20445;-72
2023/03/17 07:01:17;;;;;;;5.13;3.03;;;;;;;9.62;51.18;100217.53;3163917;28;20484;-74
2023/03/17 07:02:50;;;;;;;5.95;3.10;;;;;;;9.93;51.45;100254.53;3168839;28;20048;-75
2023/03/17 07:04:22;;;;;;;6.68;2.80;;;;;;;10.12;51.16;100254.75;3168061;28;20551;-71
2023/03/17 07:05:53;;;;;;;5.07;2.70;;;;;;;10.30;50.44;100247.22;3168667;28;20132;-77
2023/03/17 07:07:26;;;;;;;4.43;2.70;;;;;;;10.48;50.44;100236.09;3167683;28;20051;-73
2023/03/17 07:08:57;;;;;;;6.18;2.72;;;;;;;10.91;50.11;100256.16;3165861;28;20112;-77
2023/03/17 07:10:30;;;;;;;3.05;2.20;;;;;;;10.74;49.00;100192.56;3171021;28;20067;-77
2023/03/17 07:12:03;;;;;;;4.38;2.15;;;;;;;11.25;48.03;100257.41;3170873;28;20074;-73
2023/03/17 07:13:37;;;;;;;5.30;2.40;;;;;;;11.23;47.66;100234.91;3170784;28;20043;-74
2023/03/17 07:15:12;;;;;;;3.42;2.40;;;;;;;11.46;47.31;100268.72;3170961;28;20572;-75
2023/03/17 07:16:44;;;;;;;8.32;2.22;;;;;;;11.48;46.80;100266.06;3169779;28;20074;-69
2023/03/17 07:18:17;;;;;;;27.25;13.48;;;;;;;11.53;46.83;100262.31;3170316;28;20075;-68